Time;durP1;ratioP1;P1;durP2;ratioP2;P2;SDS_P1;SDS_P2;PMS_P1;PMS_P2;Temp;Humidity;BMP_temperature;BMP_pressure;BME280_temperature;BME280_humidity;BME280_pressure;Samples;Min_cycle;Max_cycle;Signal;HPM_P1;HPM_P2
2022/12/17 13:06:49;;;;;;;3.50;1.45;;;;;;;-0.25;71.54;102103.88;5159122;28;20042;-85
2022/12/17 13:09:45;;;;;;;0.60;0.60;;;;;;;-0.20;70.78;102104.91;5128876;28;20046;-85
2022/12/17 13:12:25;;;;;;;1.15;1.13;;;;;;;-0.27;71.43;102098.66;5157923;28;20015;-83
2022/12/17 13:15:05;;;;;;;2.22;2.10;;;;;;;-0.34;70.89;102087.22;5141429;28;20065;-82
2022/12/17 13:17:40;;;;;;;4.35;3.95;;;;;;;-0.35;71.24;102085.44;5119433;28;20540;-82
2022/12/17 13:20:29;;;;;;;3.22;2.92;;;;;;;-0.25;71.14;102084.13;5118067;28;20035;-82
2022/12/17 13:23:13;;;;;;;8.27;2.97;;;;;;;-0.25;71.25;102084.13;5168632;28;20026;-82
2022/12/17 13:25:43;;;;;;;0.65;0.65;;;;;;;-0.36;71.47;102080.22;5130166;28;20037;-84
2022/12/17 13:28:29;;;;;;;2.05;1.95;;;;;;;-0.32;71.29;102085.59;5150594;28;20030;-82
2022/12/17 13:31:02;;;;;;;2.35;2.17;;;;;;;-0.32;71.60;102083.00;5127832;28;20042;-82
2022/12/17 13:33:44;;;;;;;1.90;1.85;;;;;;;-0.30;71.88;102074.44;5131257;28;20030;-83
2022/12/17 13:36:15;;;;;;;2.08;1.90;;;;;;;-0.33;71.28;102076.06;5142300;28;20050;-82
2022/12/17 13:38:48;;;;;;;1.55;1.50;;;;;;;-0.33;72.25;102070.91;5117638;28;20085;-82
2022/12/17 13:41:25;;;;;;;2.00;1.90;;;;;;;-0.29;72.27;102071.06;5126401;28;20078;-83
2022/12/17 13:43:59;;;;;;;1.90;1.80;;;;;;;-0.25;72.25;102072.91;5128264;28;20037;-84
2022/12/17 13:46:41;;;;;;;1.75;1.65;;;;;;;-0.30;71.80;102062.41;5140020;28;20034;-84
2022/12/17 13:49:38;;;;;;;0.80;0.80;;;;;;;-0.17;71.31;102061.19;5138642;28;20042;-84
2022/12/17 13:52:20;;;;;;;2.85;2.75;;;;;;;-0.46;70.98;102071.25;5100743;28;20505;-83
2022/12/17 13:54:51;;;;;;;1.40;1.40;;;;;;;-0.33;71.32;102067.47;5137598;28;20073;-83
2022/12/17 13:57:24;;;;;;;0.85;0.85;;;;;;;-0.30;71.43;102061.56;5125146;28;20031;-84
2022/12/17 13:59:57;;;;;;;0.82;0.82;;;;;;;-0.34;71.23;102078.59;5121134;28;20195;-83
2022/12/17 14:02:33;;;;;;;2.20;0.60;;;;;;;-0.30;71.36;102084.75;5117706;28;20339;-84
2022/12/17 14:05:06;;;;;;;2.60;2.50;;;;;;;-0.27;71.63;102082.28;5106226;28;20497;-84
2022/12/17 14:07:38;;;;;;;1.20;1.20;;;;;;;-0.26;70.98;102078.88;5137899;28;20077;-85
2022/12/17 14:10:15;;;;;;;0.60;0.60;;;;;;;-0.36;71.46;102075.06;5135397;28;20070;-84
2022/12/17 14:12:46;;;;;;;0.90;0.90;;;;;;;-0.33;71.76;102075.22;5154908;28;20034;-84
2022/12/17 14:15:24;;;;;;;6.97;2.30;;;;;;;-0.35;71.49;102063.94;5149787;28;20058;-84
2022/12/17 14:17:57;;;;;;;6.28;2.72;;;;;;;-0.29;71.09;102074.50;5129131;28;20325;-84
2022/12/17 14:20:31;;;;;;;10.65;2.60;;;;;;;-0.34;71.31;102079.47;5123222;28;20061;-84
2022/12/17 14:23:04;;;;;;;;;;;;;;;-0.26;71.32;102081.47;5145929;28;20398;-83
2022/12/17 14:25:36;;;;;;;1.02;1.02;;;;;;;-0.29;71.78;102081.38;5132093;28;20666;-85
2022/12/17 14:28:30;;;;;;;2.23;2.13;;;;;;;-0.38;70.87;102082.75;5109152;28;20039;-84
2022/12/17 14:31:13;;;;;;;1.20;1.20;;;;;;;-0.34;71.85;102087.22;5136866;28;20118;-84
2022/12/17 14:33:45;;;;;;;2.13;2.03;;;;;;;-0.37;71.39;102088.78;5125952;28;20034;-84
2022/12/17 14:36:15;;;;;;;0.88;0.88;;;;;;;-0.41;71.25;102092.94;5139737;28;20049;-85
2022/12/17 14:38:52;;;;;;;1.85;1.77;;;;;;;-0.47;71.38;102095.28;5125855;28;20117;-83
2022/12/17 14:44:20;;;;;;;1.42;1.38;;;;;;;-0.55;70.62;102097.53;5124724;28;20520;-86
2022/12/17 14:47:04;;;;;;;1.27;1.25;;;;;;;-0.51;71.43;102101.13;5123356;28;20046;-86
2022/12/17 14:49:38;;;;;;;3.83;2.58;;;;;;;-0.51;71.08;102095.97;5144289;28;20026;-86
2022/12/17 14:52:13;;;;;;;2.50;2.40;;;;;;;-0.54;70.95;102093.28;5111824;28;20102;-87
2022/12/17 14:54:45;;;;;;;2.60;2.45;;;;;;;-0.48;71.49;102098.69;5146474;28;20047;-87
2022/12/17 14:57:21;;;;;;;1.73;1.63;;;;;;;-0.50;71.55;102102.88;5163221;28;20043;-86
2022/12/17 14:59:51;;;;;;;1.75;1.67;;;;;;;-0.48;71.44;102107.28;5138331;28;20042;-86
2022/12/17 15:02:27;;;;;;;1.60;1.50;;;;;;;-0.50;71.04;102105.47;5140789;28;20031;-86
2022/12/17 15:05:00;;;;;;;2.22;2.13;;;;;;;-0.55;71.17;102100.13;5147896;28;20034;-85
2022/12/17 15:07:32;;;;;;;4.28;3.28;;;;;;;-0.53;71.17;102097.59;5123200;28;20034;-85
2022/12/17 15:10:11;;;;;;;2.65;2.55;;;;;;;-0.53;71.34;102103.66;5146198;28;20117;-85
2022/12/17 15:12:47;;;;;;;1.58;1.48;;;;;;;-0.55;70.93;102094.97;5127635;28;20054;-85
2022/12/17 15:15:20;;;;;;;0.60;0.60;;;;;;;-0.60;71.54;102095.59;5144797;28;20038;-84
2022/12/17 15:17:51;;;;;;;0.80;0.80;;;;;;;-0.63;71.27;102091.19;5114526;28;20042;-84
2022/12/17 15:20:21;;;;;;;1.08;1.08;;;;;;;-0.59;70.68;102087.03;5116960;28;20914;-85
2022/12/17 15:22:52;;;;;;;3.00;2.80;;;;;;;-0.53;71.05;102092.44;5133001;28;20069;-85
2022/12/17 15:25:22;;;;;;;0.45;0.45;;;;;;;-0.59;71.22;102094.78;5150010;28;20122;-84
2022/12/17 15:27:54;;;;;;;1.45;1.42;;;;;;;-0.68;71.44;102103.03;5119890;28;20240;-84
2022/12/17 15:30:25;;;;;;;2.97;2.78;;;;;;;-0.67;70.86;102103.06;5127193;28;20517;-85
2022/12/17 15:32:56;;;;;;;1.58;1.50;;;;;;;-0.62;70.56;102107.56;5147971;28;20054;-86
2022/12/17 15:35:26;;;;;;;1.05;1.05;;;;;;;-0.70;71.13;102112.38;5147234;28;20061;-85
2022/12/17 15:37:57;;;;;;;4.78;3.25;;;;;;;-0.68;71.14;102114.19;5138365;28;20030;-85
2022/12/17 15:40:28;;;;;;;3.20;3.00;;;;;;;-0.74;71.21;102113.94;5128998;28;20051;-84
2022/12/17 15:43:13;;;;;;;0.40;0.40;;;;;;;-0.78;71.35;102112.03;5145241;28;20148;-86
2022/12/17 15:45:49;;;;;;;3.67;3.47;;;;;;;-0.74;70.96;102118.25;5135071;28;20134;-83
2022/12/17 15:48:22;;;;;;;2.78;2.63;;;;;;;-0.73;71.23;102109.66;5134577;28;20073;-83
2022/12/17 15:50:52;;;;;;;0.75;0.75;;;;;;;-0.76;71.16;102109.56;5134860;28;20077;-83
2022/12/17 15:53:23;;;;;;;11.00;3.30;;;;;;;-0.86;70.86;102114.31;5121306;28;20054;-83
2022/12/17 15:55:59;;;;;;;0.88;0.88;;;;;;;-0.84;71.38;102109.22;5106821;28;20058;-83
2022/12/17 15:58:30;;;;;;;1.20;1.20;;;;;;;-0.85;71.01;102115.19;5139483;28;20027;-83
2022/12/17 16:01:04;;;;;;;2.60;2.47;;;;;;;-0.86;71.44;102108.25;5132149;28;20046;-84
2022/12/17 16:03:35;;;;;;;2.35;2.25;;;;;;;-0.89;70.93;102116.75;5121639;28;20080;-83
2022/12/17 16:06:05;;;;;;;35.08;3.35;;;;;;;-0.95;70.64;102112.22;5127505;28;20482;-83
2022/12/17 16:08:37;;;;;;;1.25;1.25;;;;;;;-0.99;70.87;102114.63;5136409;28;20397;-83
2022/12/17 16:11:09;;;;;;;0.95;0.95;;;;;;;-0.99;71.30;102122.34;5141768;28;20047;-81
2022/12/17 16:13:40;;;;;;;1.52;1.48;;;;;;;-0.99;71.40;102125.78;5109700;28;20031;-81
2022/12/17 16:16:10;;;;;;;1.17;1.17;;;;;;;-0.97;71.06;102131.00;5128539;28;20047;-82
2022/12/17 16:18:47;;;;;;;2.60;2.42;;;;;;;-0.97;70.37;102131.00;5142908;28;20098;-84
2022/12/17 16:21:17;;;;;;;1.25;1.25;;;;;;;-1.03;70.53;102125.59;5123153;28;20038;-82
2022/12/17 16:23:50;;;;;;;1.67;1.63;;;;;;;-1.02;70.61;102132.50;5119109;28;20033;-82
2022/12/17 16:26:21;;;;;;;1.15;1.15;;;;;;;-1.06;70.75;102131.50;5144537;28;20572;-82
2022/12/17 16:28:51;;;;;;;2.92;2.72;;;;;;;-1.08;71.05;102135.69;5129391;28;20121;-83
2022/12/17 16:31:22;;;;;;;0.75;0.75;;;;;;;-1.19;71.20;102135.22;5147762;28;20042;-83
2022/12/17 16:33:52;;;;;;;1.23;1.23;;;;;;;-1.19;70.76;102131.75;5114405;28;20030;-81
2022/12/17 16:36:22;;;;;;;1.02;1.00;;;;;;;-1.14;70.56;102138.00;5142724;28;20464;-81
2022/12/17 16:38:53;;;;;;;5.55;1.58;;;;;;;-1.15;71.10;102131.09;5116940;28;20413;-81
2022/12/17 16:41:24;;;;;;;0.45;0.45;;;;;;;-1.19;70.67;102136.91;5116372;28;20051;-80
2022/12/17 16:44:03;;;;;;;0.98;0.98;;;;;;;-1.29;70.70;102133.06;5147659;28;20027;-81
2022/12/17 16:46:39;;;;;;;0.77;0.77;;;;;;;-1.30;70.90;102142.50;5122672;28;20102;-80
2022/12/17 16:49:15;;;;;;;3.70;2.47;;;;;;;-1.32;70.60;102138.97;5148709;28;20031;-80
2022/12/17 16:51:51;;;;;;;0.60;0.60;;;;;;;-1.31;70.96;102148.44;5145201;28;20110;-80
2022/12/17 16:54:30;;;;;;;1.67;1.58;;;;;;;-1.30;70.47;102152.78;5112993;28;20062;-80
2022/12/17 16:57:01;;;;;;;2.03;1.92;;;;;;;-1.35;70.66;102149.09;5139917;28;20038;-81
2022/12/17 16:59:31;;;;;;;0.50;0.50;;;;;;;-1.40;71.12;102144.59;5104953;28;20031;-80
2022/12/17 17:02:02;;;;;;;0.70;0.70;;;;;;;-1.31;70.46;102145.88;5148732;28;20034;-81
2022/12/17 17:04:32;;;;;;;0.60;0.60;;;;;;;-1.33;70.58;102157.78;5121702;28;20030;-81
2022/12/17 17:07:04;;;;;;;0.40;0.40;;;;;;;-1.34;70.29;102152.59;5113342;28;20085;-79
2022/12/17 17:09:34;;;;;;;6.32;2.15;;;;;;;-1.35;71.05;102159.41;5127911;28;20497;-81
2022/12/17 17:12:07;;;;;;;1.15;1.15;;;;;;;-1.40;70.22;102163.47;5130859;28;20050;-80
2022/12/17 17:14:39;;;;;;;4.15;3.75;;;;;;;-1.39;70.70;102162.69;5113369;28;20037;-81
2022/12/17 17:17:09;;;;;;;1.00;1.00;;;;;;;-1.36;70.27;102151.63;5108099;28;20117;-81
2022/12/17 17:19:40;;;;;;;0.55;0.55;;;;;;;-1.39;69.79;102148.91;5113446;28;20042;-81
2022/12/17 17:22:10;;;;;;;1.05;1.05;;;;;;;-1.41;70.55;102143.69;5113896;28;20031;-80
2022/12/17 17:24:44;;;;;;;0.85;0.85;;;;;;;-1.41;70.42;102153.13;5127362;28;20045;-80
2022/12/17 17:27:15;;;;;;;0.93;0.93;;;;;;;-1.44;69.79;102159.00;5113393;28;20074;-81
2022/12/17 17:29:46;;;;;;;3.42;3.00;;;;;;;-1.46;70.03;102155.50;5141817;28;20596;-80
2022/12/17 17:32:16;;;;;;;2.67;2.47;;;;;;;-1.47;70.23;102153.72;5128504;28;20036;-80
2022/12/17 17:34:55;;;;;;;2.00;1.90;;;;;;;-1.52;70.49;102157.75;5131410;28;20074;-80
2022/12/17 17:37:26;;;;;;;1.90;1.80;;;;;;;-1.50;70.20;102154.47;5128046;28;20034;-81
2022/12/17 17:39:57;;;;;;;0.73;0.73;;;;;;;-1.60;69.86;102168.59;5156899;28;20808;-81
2022/12/17 17:42:28;;;;;;;1.85;1.40;;;;;;;-1.57;69.97;102165.31;5110435;28;20026;-82
2022/12/17 17:44:58;;;;;;;0.75;0.75;;;;;;;-1.66;69.65;102163.16;5130809;28;20035;-82
2022/12/17 17:47:30;;;;;;;4.50;1.95;;;;;;;-1.62;69.84;102171.91;5141988;28;20532;-80
2022/12/17 17:50:01;;;;;;;0.82;0.82;;;;;;;-1.67;69.94;102161.41;5105182;28;20054;-80
2022/12/17 17:52:31;;;;;;;8.35;1.88;;;;;;;-1.71;70.14;102158.59;5140185;28;20667;-80
2022/12/17 17:55:11;;;;;;;2.05;1.95;;;;;;;-1.71;69.51;102156.03;5121753;28;20638;-81
2022/12/17 17:57:41;;;;;;;1.45;0.73;;;;;;;-1.74;69.67;102159.34;5104501;28;20027;-80
2022/12/17 18:00:12;;;;;;;1.67;1.63;;;;;;;-1.75;69.87;102166.22;5127231;28;20106;-81
2022/12/17 18:02:42;;;;;;;1.77;1.58;;;;;;;-1.75;69.70;102163.63;5126270;28;20053;-81
2022/12/17 18:05:13;;;;;;;1.02;1.02;;;;;;;-1.79;69.76;102161.72;5128788;28;20039;-81
2022/12/17 18:07:43;;;;;;;2.88;2.60;;;;;;;-1.82;69.89;102176.13;5144734;28;20214;-81
2022/12/17 18:10:14;;;;;;;10.73;2.40;;;;;;;-1.85;69.83;102174.28;5089375;28;20134;-81
2022/12/17 18:15:34;;;;;;;3.55;3.35;;;;;;;-1.86;70.27;102169.09;5138277;28;20055;-80
2022/12/17 18:18:08;;;;;;;0.88;0.88;;;;;;;-1.93;70.12;102161.06;5133492;28;20323;-80
2022/12/17 18:20:39;;;;;;;1.13;1.13;;;;;;;-1.92;69.82;102170.53;5145925;28;20147;-82
2022/12/17 18:23:10;;;;;;;1.00;1.00;;;;;;;-1.93;70.26;102163.63;5151799;28;20055;-81
2022/12/17 18:25:43;;;;;;;2.78;1.83;;;;;;;-1.96;70.07;102162.59;5134092;28;20373;-82
2022/12/17 18:28:13;;;;;;;1.33;1.33;;;;;;;-1.98;70.43;102159.97;5118604;28;20127;-79
2022/12/17 18:30:47;;;;;;;0.88;0.88;;;;;;;-1.99;70.31;102154.75;5139002;28;20356;-82
2022/12/17 18:33:17;;;;;;;2.33;2.22;;;;;;;-2.03;69.97;102163.13;5112151;28;20090;-81
2022/12/17 18:35:54;;;;;;;1.35;1.35;;;;;;;-2.05;69.93;102168.19;5120829;28;20129;-82
2022/12/17 18:38:27;;;;;;;0.30;0.30;;;;;;;-2.02;70.23;102168.34;5116778;28;20410;-83
2022/12/17 18:43:21;;;;;;;1.42;1.35;;;;;;;-1.99;70.21;102163.34;5115910;28;20046;-82
2022/12/17 18:44:06;;;;;;;2.08;1.95;;;;;;;-1.98;69.88;102167.69;5151135;28;20563;-82
2022/12/17 18:46:37;;;;;;;14.27;4.35;;;;;;;-1.98;69.67;102162.53;5125427;28;20058;-83
2022/12/17 18:49:11;;;;;;;0.50;0.50;;;;;;;-1.98;69.66;102153.97;5145965;28;20035;-81
2022/12/17 18:51:43;;;;;;;0.82;0.82;;;;;;;-2.02;69.94;102167.47;5131510;28;20057;-82
2022/12/17 18:54:17;;;;;;;0.82;0.82;;;;;;;-2.08;69.96;102168.94;5130621;28;20034;-80
2022/12/17 18:56:56;;;;;;;0.60;0.60;;;;;;;-2.06;69.63;102171.59;5141961;28;20035;-81
2022/12/17 18:59:28;;;;;;;3.30;2.70;;;;;;;-2.04;69.52;102174.22;5128034;28;20065;-83
2022/12/17 19:01:58;;;;;;;0.98;0.98;;;;;;;-2.06;69.65;102179.28;5128770;28;20034;-82
2022/12/17 19:04:31;;;;;;;2.00;1.90;;;;;;;-2.10;69.58;102180.84;5139676;28;20674;-81
2022/12/17 19:07:02;;;;;;;1.00;0.98;;;;;;;-2.06;69.69;102192.16;5143085;28;20041;-81
2022/12/17 19:09:37;;;;;;;1.15;1.13;;;;;;;-2.07;69.69;102190.38;5143565;28;20031;-83
2022/12/17 19:12:12;;;;;;;1.05;1.05;;;;;;;-2.06;69.94;102192.16;5127123;28;20162;-80
2022/12/17 19:14:45;;;;;;;1.00;1.00;;;;;;;-2.15;69.75;102196.84;5131496;28;20567;-82
2022/12/17 19:17:17;;;;;;;0.32;0.32;;;;;;;-2.10;69.14;102190.22;5128536;28;20077;-80
2022/12/17 19:19:48;;;;;;;0.82;0.82;;;;;;;-2.10;69.71;102192.78;5140159;28;20308;-80
2022/12/17 19:22:18;;;;;;;0.40;0.40;;;;;;;-2.10;69.27;102195.38;5119294;28;20031;-82
2022/12/17 19:24:49;;;;;;;2.00;1.80;;;;;;;-2.10;69.15;102188.56;5141334;28;20039;-84
2022/12/17 19:27:19;;;;;;;0.40;0.40;;;;;;;-2.10;69.32;102187.66;5126962;28;20236;-81
2022/12/17 19:29:53;;;;;;;0.38;0.38;;;;;;;-2.15;69.27;102190.03;5123631;28;20031;-80
2022/12/17 19:32:24;;;;;;;0.60;0.60;;;;;;;-2.22;69.66;102186.28;5125772;28;20027;-83
2022/12/17 19:34:54;;;;;;;3.47;3.28;;;;;;;-2.23;69.47;102189.66;5137771;28;20050;-82
2022/12/17 19:37:26;;;;;;;2.50;1.75;;;;;;;-2.22;69.16;102194.00;5136853;28;20091;-81
2022/12/17 19:39:56;;;;;;;2.20;2.03;;;;;;;-2.23;69.30;102192.22;5117870;28;20768;-79
2022/12/17 19:42:29;;;;;;;2.17;2.08;;;;;;;-2.24;68.90;102192.16;5151442;28;20054;-81
2022/12/17 19:45:00;;;;;;;0.60;0.60;;;;;;;-2.25;69.02;102196.41;5130448;28;20039;-79
2022/12/17 19:47:30;;;;;;;1.05;1.05;;;;;;;-2.26;69.22;102193.75;5127417;28;20540;-84
2022/12/17 19:50:01;;;;;;;0.55;0.55;;;;;;;-2.31;69.05;102196.09;5139696;28;20086;-80
2022/12/17 19:52:37;;;;;;;1.38;1.35;;;;;;;-2.27;69.01;102203.16;5129576;28;20057;-80
2022/12/17 19:55:19;;;;;;;5.30;4.43;;;;;;;-2.24;68.69;102211.03;5137052;28;20046;-82
2022/12/17 19:57:50;;;;;;;2.40;1.02;;;;;;;-2.31;69.08;102213.22;5123701;28;20393;-78
2022/12/17 20:00:23;;;;;;;3.38;1.95;;;;;;;-2.35;68.55;102219.88;5138283;28;20031;-80
2022/12/17 20:02:54;;;;;;;1.77;1.67;;;;;;;-2.34;68.92;102216.50;5126613;28;20034;-79
2022/12/17 20:05:24;;;;;;;3.28;3.00;;;;;;;-2.45;69.10;102209.97;5142226;28;20552;-80
2022/12/17 20:07:55;;;;;;;4.80;4.32;;;;;;;-2.41;68.65;102214.44;5127595;28;20244;-81
2022/12/17 20:10:25;;;;;;;1.60;1.42;;;;;;;-2.45;68.72;102220.25;5138637;28;20043;-81
2022/12/17 20:12:56;;;;;;;0.68;0.68;;;;;;;-2.43;68.39;102228.88;5121637;28;20027;-79
2022/12/17 20:15:27;;;;;;;2.28;2.17;;;;;;;-2.48;68.80;102232.94;5134672;28;20111;-80
2022/12/17 20:17:57;;;;;;;1.27;1.27;;;;;;;-2.47;68.96;102230.44;5147112;28;20114;-81
2022/12/17 20:20:28;;;;;;;1.98;1.88;;;;;;;-2.49;68.51;102237.19;5124480;28;20133;-84
2022/12/17 20:22:58;;;;;;;1.20;1.20;;;;;;;-2.53;68.93;102238.72;5136816;28;20035;-82
2022/12/17 20:25:29;;;;;;;2.15;2.05;;;;;;;-2.50;68.95;102229.38;5144686;28;20058;-81
2022/12/17 20:27:59;;;;;;;1.38;1.38;;;;;;;-2.49;68.59;102241.44;5146898;28;20089;-81
2022/12/17 20:30:30;;;;;;;7.53;1.92;;;;;;;-2.53;68.43;102236.16;5140487;28;20095;-82
2022/12/17 20:33:00;;;;;;;2.60;1.25;;;;;;;-2.61;68.81;102234.88;5159687;28;20071;-81
2022/12/17 20:35:31;;;;;;;2.35;1.50;;;;;;;-2.59;68.65;102240.97;5145257;28;20062;-82
2022/12/17 20:38:02;;;;;;;0.60;0.60;;;;;;;-2.59;68.46;102232.38;5118409;28;20027;-81
2022/12/17 20:40:33;;;;;;;1.80;1.70;;;;;;;-2.55;68.74;102237.75;5133643;28;20050;-80
2022/12/17 20:43:15;;;;;;;3.00;2.88;;;;;;;-2.54;68.50;102239.53;5122007;28;20643;-80
2022/12/17 20:45:50;;;;;;;1.70;1.63;;;;;;;-2.61;68.73;102241.69;5117170;28;20058;-81
2022/12/17 20:48:21;;;;;;;0.70;0.70;;;;;;;-2.61;68.84;102242.59;5172115;28;20039;-82
2022/12/17 20:50:53;;;;;;;0.90;0.90;;;;;;;-2.63;68.79;102246.78;5160963;28;20051;-81
2022/12/17 20:53:24;;;;;;;1.63;1.52;;;;;;;-2.68;68.19;102255.91;5155853;28;20007;-82
2022/12/17 20:56:00;;;;;;;2.53;2.38;;;;;;;-2.62;68.29;102251.09;5152114;28;20178;-81
2022/12/17 20:58:30;;;;;;;1.35;1.33;;;;;;;-2.66;68.27;102253.44;5139978;28;20019;-82
2022/12/17 21:01:07;;;;;;;0.82;0.82;;;;;;;-2.66;68.44;102254.31;5147184;28;20087;-80
2022/12/17 21:03:39;;;;;;;0.50;0.50;;;;;;;-2.70;68.35;102248.13;5168536;28;20022;-81
2022/12/17 21:06:14;;;;;;;0.77;0.77;;;;;;;-2.69;68.76;102243.88;5133911;28;20248;-82
2022/12/17 21:11:43;;;;;;;0.50;0.50;;;;;;;-2.74;68.12;102247.88;5145583;28;20086;-80
2022/12/17 21:14:16;;;;;;;2.58;2.45;;;;;;;-2.71;68.35;102250.63;5150302;28;20027;-79
2022/12/17 21:16:47;;;;;;;0.77;0.77;;;;;;;-2.72;68.44;102244.59;5138294;28;20061;-81
2022/12/17 21:19:18;;;;;;;11.82;3.97;;;;;;;-2.67;68.24;102239.69;5152035;28;20035;-80
2022/12/17 21:21:51;;;;;;;2.30;2.20;;;;;;;-2.73;68.09;102241.94;5164118;28;20043;-81
2022/12/17 21:24:22;;;;;;;3.13;2.47;;;;;;;-2.77;68.35;102240.03;5123403;28;20035;-81
2022/12/17 21:26:52;;;;;;;0.82;0.82;;;;;;;-2.75;68.28;102238.41;5152821;28;20034;-80
2022/12/17 21:29:26;;;;;;;1.83;1.73;;;;;;;-2.76;68.70;102239.22;5140535;28;20023;-82
2022/12/17 21:31:57;;;;;;;0.93;0.93;;;;;;;-2.77;68.21;102229.75;5123389;28;20046;-81
2022/12/17 21:34:31;;;;;;;0.95;0.95;;;;;;;-2.77;68.54;102233.19;5133567;28;20031;-80
2022/12/17 21:37:01;;;;;;;2.15;2.05;;;;;;;-2.84;68.19;102233.69;5115951;28;20108;-80
2022/12/17 21:39:32;;;;;;;2.00;1.90;;;;;;;-2.90;68.29;102238.50;5129161;28;20645;-81
2022/12/17 21:44:51;;;;;;;2.33;2.22;;;;;;;-2.97;68.54;102236.44;5140459;28;20047;-81
2022/12/17 21:47:22;;;;;;;3.40;2.80;;;;;;;-2.98;68.89;102235.53;5147105;28;20029;-81
2022/12/17 21:49:53;;;;;;;2.05;1.92;;;;;;;-2.95;68.55;102232.22;5132765;28;20043;-81
2022/12/17 21:52:30;;;;;;;0.47;0.47;;;;;;;-2.95;68.50;102228.00;5142714;28;20078;-81
2022/12/17 21:55:00;;;;;;;1.15;1.15;;;;;;;-2.99;68.79;102232.88;5123106;28;20059;-82
2022/12/17 21:57:31;;;;;;;1.40;1.40;;;;;;;-3.01;68.96;102235.34;5140432;28;20556;-82
2022/12/17 22:00:02;;;;;;;0.60;0.60;;;;;;;-3.03;68.66;102240.41;5147947;28;20043;-81
2022/12/17 22:02:33;;;;;;;1.92;1.83;;;;;;;-3.04;68.70;102251.47;5149609;28;20058;-81
2022/12/17 22:05:05;;;;;;;0.63;0.63;;;;;;;-3.02;68.99;102249.03;5151487;28;20043;-79
2022/12/17 22:07:35;;;;;;;1.52;1.50;;;;;;;-3.03;69.11;102252.38;5103807;28;20042;-81
2022/12/17 22:10:07;;;;;;;1.23;1.13;;;;;;;-3.05;68.80;102254.84;5132863;28;20062;-81
2022/12/17 22:15:27;;;;;;;1.15;1.15;;;;;;;-2.98;68.75;102256.06;5142255;28;20043;-81
2022/12/17 22:17:58;;;;;;;0.43;0.43;;;;;;;-3.02;68.83;102249.03;5148715;28;20022;-81
2022/12/17 22:20:28;;;;;;;0.75;0.75;;;;;;;-3.04;69.07;102253.19;5145856;28;20094;-81
2022/12/17 22:23:03;;;;;;;4.25;3.88;;;;;;;-2.98;69.21;102255.19;5135771;28;20111;-81
2022/12/17 22:25:37;;;;;;;1.02;1.02;;;;;;;-3.08;69.45;102258.94;5133338;28;20433;-81
2022/12/17 22:28:07;;;;;;;;;;;;;;;-3.10;69.46;102268.28;5148552;28;20026;-81
2022/12/17 22:33:27;;;;;;;3.60;2.60;;;;;;;-3.08;69.31;102264.97;5148150;28;20074;-81
2022/12/17 22:36:01;;;;;;;1.25;1.25;;;;;;;-3.05;69.42;102267.69;5118668;28;20561;-81
2022/12/17 22:38:31;;;;;;;;;;;;;;;-3.09;69.59;102262.31;5126586;28;20042;-81
2022/12/17 22:41:06;;;;;;;9.77;5.45;;;;;;;-3.07;69.56;102265.84;5127818;28;19993;-81
2022/12/17 22:43:36;;;;;;;0.98;0.98;;;;;;;-3.09;69.63;102260.63;5143842;28;20035;-80
2022/12/17 22:46:07;;;;;;;0.85;0.85;;;;;;;-3.03;69.28;102265.22;5127776;28;20059;-80
2022/12/17 22:48:37;;;;;;;0.90;0.90;;;;;;;-3.09;69.61;102265.78;5113033;28;20387;-81
2022/12/17 22:51:09;;;;;;;1.23;1.23;;;;;;;-3.04;69.58;102274.59;5131083;28;20051;-81
2022/12/17 22:53:40;;;;;;;0.95;0.95;;;;;;;-3.08;69.40;102276.91;5134503;28;20540;-80
2022/12/17 22:56:10;;;;;;;0.98;0.98;;;;;;;-3.06;69.57;102268.53;5142989;28;20054;-81
2022/12/17 22:58:41;;;;;;;1.20;1.20;;;;;;;-3.07;69.75;102277.03;5146835;28;20117;-80
2022/12/17 23:01:12;;;;;;;1.17;0.80;;;;;;;-3.03;69.30;102275.50;5144381;28;20061;-82
2022/12/17 23:03:43;;;;;;;0.77;0.77;;;;;;;-2.99;69.59;102274.84;5146430;28;20037;-80
2022/12/17 23:06:16;;;;;;;0.70;0.70;;;;;;;-2.99;69.74;102272.28;5128480;28;20122;-81
2022/12/17 23:08:47;;;;;;;1.02;1.02;;;;;;;-3.05;69.20;102274.53;5146305;28;20031;-80
2022/12/17 23:11:22;;;;;;;0.50;0.50;;;;;;;-3.05;69.05;102269.41;5142518;28;20272;-81
2022/12/17 23:13:52;;;;;;;1.55;1.52;;;;;;;-2.99;69.83;102266.28;5151738;28;20046;-82
2022/12/17 23:16:23;;;;;;;0.75;0.75;;;;;;;-2.99;70.08;102279.97;5141193;28;20038;-81
2022/12/17 23:18:54;;;;;;;0.95;0.95;;;;;;;-2.90;69.54;102280.47;5133105;28;20027;-81
2022/12/17 23:21:25;;;;;;;1.63;1.52;;;;;;;-2.92;69.61;102266.66;5144966;28;20176;-80
2022/12/17 23:23:56;;;;;;;4.68;3.53;;;;;;;-2.92;69.47;102270.94;5147896;28;20102;-81
2022/12/17 23:26:30;;;;;;;1.40;1.33;;;;;;;-3.01;69.22;102266.16;5118243;28;20047;-81
2022/12/17 23:29:04;;;;;;;3.67;3.38;;;;;;;-3.01;69.40;102263.59;5117456;28;20066;-81
2022/12/17 23:31:37;;;;;;;2.08;1.95;;;;;;;-2.95;69.77;102257.91;5131845;28;20038;-81
2022/12/17 23:34:07;;;;;;;0.63;0.63;;;;;;;-2.99;69.72;102264.56;5165448;28;20405;-80
2022/12/17 23:36:38;;;;;;;1.67;1.55;;;;;;;-3.02;69.46;102255.03;5153696;28;20043;-80
2022/12/17 23:39:08;;;;;;;0.60;0.60;;;;;;;-2.96;69.58;102257.03;5153580;28;20027;-81
2022/12/17 23:41:39;;;;;;;2.40;2.20;;;;;;;-2.92;69.27;102258.97;5139292;28;20046;-81
2022/12/17 23:44:09;;;;;;;2.15;2.05;;;;;;;-2.97;69.57;102256.97;5152408;28;20117;-81
2022/12/17 23:46:40;;;;;;;0.90;0.90;;;;;;;-2.99;69.17;102259.44;5133505;28;20045;-81
2022/12/17 23:49:13;;;;;;;0.70;0.70;;;;;;;-2.96;69.47;102256.16;5128159;28;20123;-80
2022/12/17 23:51:44;;;;;;;3.03;2.72;;;;;;;-2.96;69.36;102249.34;5134899;28;20031;-81
2022/12/17 23:54:14;;;;;;;0.50;0.50;;;;;;;-2.96;69.75;102259.63;5132913;28;20033;-82
2022/12/17 23:56:45;;;;;;;2.03;1.92;;;;;;;-3.03;69.20;102258.41;5145589;28;20041;-80
2022/12/17 23:59:15;;;;;;;1.55;1.52;;;;;;;-2.95;69.61;102255.34;5133373;28;20030;-80
